sensor_id;sensor_type;location;lat;lon;timestamp;temperature;humidity
19164;DHT22;9714;51.208;4.242;2023-05-24T00:02:10;11.80;99.90
19164;DHT22;9714;51.208;4.242;2023-05-24T00:04:38;11.90;99.90
19164;DHT22;9714;51.208;4.242;2023-05-24T00:07:06;11.90;99.90
19164;DHT22;9714;51.208;4.242;2023-05-24T00:09:33;11.70;99.90
19164;DHT22;9714;51.208;4.242;2023-05-24T00:12:00;11.80;99.90
19164;DHT22;9714;51.208;4.242;2023-05-24T00:14:28;11.70;99.90
19164;DHT22;9714;51.208;4.242;2023-05-24T00:16:56;11.70;99.90
19164;DHT22;9714;51.208;4.242;2023-05-24T00:19:23;11.60;99.90
19164;DHT22;9714;51.208;4.242;2023-05-24T00:21:50;11.50;99.90
19164;DHT22;9714;51.208;4.242;2023-05-24T00:24:18;11.50;99.90
19164;DHT22;9714;51.208;4.242;2023-05-24T00:26:45;11.60;99.90
19164;DHT22;9714;51.208;4.242;2023-05-24T00:29:13;11.70;99.90
19164;DHT22;9714;51.208;4.242;2023-05-24T00:31:41;11.60;99.90
19164;DHT22;9714;51.208;4.242;2023-05-24T00:34:10;11.60;99.90
19164;DHT22;9714;51.208;4.242;2023-05-24T00:36:37;11.60;99.90
19164;DHT22;9714;51.208;4.242;2023-05-24T00:39:04;11.60;99.90
19164;DHT22;9714;51.208;4.242;2023-05-24T00:41:31;11.60;99.90
19164;DHT22;9714;51.208;4.242;2023-05-24T00:43:59;11.70;99.90
19164;DHT22;9714;51.208;4.242;2023-05-24T00:46:27;11.60;99.90
19164;DHT22;9714;51.208;4.242;2023-05-24T00:48:56;11.70;99.90
19164;DHT22;9714;51.208;4.242;2023-05-24T00:51:25;11.80;99.90
19164;DHT22;9714;51.208;4.242;2023-05-24T00:53:53;11.80;99.90
19164;DHT22;9714;51.208;4.242;2023-05-24T00:56:20;11.60;99.90
19164;DHT22;9714;51.208;4.242;2023-05-24T00:58:48;11.60;99.90
19164;DHT22;9714;51.208;4.242;2023-05-24T01:01:19;11.60;99.90
19164;DHT22;9714;51.208;4.242;2023-05-24T01:03:50;11.60;99.90
19164;DHT22;9714;51.208;4.242;2023-05-24T01:06:20;11.60;99.90
19164;DHT22;9714;51.208;4.242;2023-05-24T01:09:05;12.00;99.90
19164;DHT22;9714;51.208;4.242;2023-05-24T01:11:42;11.90;99.90
19164;DHT22;9714;51.208;4.242;2023-05-24T01:14:33;11.80;99.90
19164;DHT22;9714;51.208;4.242;2023-05-24T01:17:07;11.70;99.90
19164;DHT22;9714;51.208;4.242;2023-05-24T01:19:48;11.60;99.90
19164;DHT22;9714;51.208;4.242;2023-05-24T01:22:46;11.60;99.90
19164;DHT22;9714;51.208;4.242;2023-05-24T01:25:26;11.90;99.90
19164;DHT22;9714;51.208;4.242;2023-05-24T01:28:01;12.00;99.90
19164;DHT22;9714;51.208;4.242;2023-05-24T01:30:30;11.90;99.90
19164;DHT22;9714;51.208;4.242;2023-05-24T01:32:57;11.80;99.90
19164;DHT22;9714;51.208;4.242;2023-05-24T01:35:25;11.40;99.90
19164;DHT22;9714;51.208;4.242;2023-05-24T01:37:52;11.30;99.90
19164;DHT22;9714;51.208;4.242;2023-05-24T01:40:19;11.00;99.90
19164;DHT22;9714;51.208;4.242;2023-05-24T01:42:58;10.80;99.90
19164;DHT22;9714;51.208;4.242;2023-05-24T01:45:32;10.70;99.90
19164;DHT22;9714;51.208;4.242;2023-05-24T01:48:08;10.80;99.90
19164;DHT22;9714;51.208;4.242;2023-05-24T01:50:47;10.90;99.90
19164;DHT22;9714;51.208;4.242;2023-05-24T01:53:17;11.10;99.90
19164;DHT22;9714;51.208;4.242;2023-05-24T01:55:47;11.10;99.90
19164;DHT22;9714;51.208;4.242;2023-05-24T01:58:15;10.70;99.90
19164;DHT22;9714;51.208;4.242;2023-05-24T02:00:46;10.50;99.90
19164;DHT22;9714;51.208;4.242;2023-05-24T02:03:14;10.40;99.90
19164;DHT22;9714;51.208;4.242;2023-05-24T02:05:41;10.40;99.90
19164;DHT22;9714;51.208;4.242;2023-05-24T02:08:09;10.30;99.90
19164;DHT22;9714;51.208;4.242;2023-05-24T02:10:37;10.40;99.90
19164;DHT22;9714;51.208;4.242;2023-05-24T02:13:05;10.40;99.90
19164;DHT22;9714;51.208;4.242;2023-05-24T02:15:32;10.40;99.90
19164;DHT22;9714;51.208;4.242;2023-05-24T02:18:04;10.50;99.90
19164;DHT22;9714;51.208;4.242;2023-05-24T02:20:40;10.40;99.90
19164;DHT22;9714;51.208;4.242;2023-05-24T02:23:07;10.40;99.90
19164;DHT22;9714;51.208;4.242;2023-05-24T02:25:35;10.30;99.90
19164;DHT22;9714;51.208;4.242;2023-05-24T02:28:02;10.20;99.90
19164;DHT22;9714;51.208;4.242;2023-05-24T02:30:29;10.10;99.90
19164;DHT22;9714;51.208;4.242;2023-05-24T02:32:56;10.10;99.90
19164;DHT22;9714;51.208;4.242;2023-05-24T02:35:25;10.00;99.90
19164;DHT22;9714;51.208;4.242;2023-05-24T02:37:52;10.10;99.90
19164;DHT22;9714;51.208;4.242;2023-05-24T02:40:19;9.90;99.90
19164;DHT22;9714;51.208;4.242;2023-05-24T02:42:46;9.80;99.90
19164;DHT22;9714;51.208;4.242;2023-05-24T02:45:13;9.60;99.90
19164;DHT22;9714;51.208;4.242;2023-05-24T02:47:41;9.70;99.90
19164;DHT22;9714;51.208;4.242;2023-05-24T02:50:09;9.70;99.90
19164;DHT22;9714;51.208;4.242;2023-05-24T02:52:37;9.90;99.90
19164;DHT22;9714;51.208;4.242;2023-05-24T02:55:06;9.90;99.90
19164;DHT22;9714;51.208;4.242;2023-05-24T02:57:34;9.90;99.90
19164;DHT22;9714;51.208;4.242;2023-05-24T03:00:03;10.00;99.90
19164;DHT22;9714;51.208;4.242;2023-05-24T03:02:31;10.10;99.90
19164;DHT22;9714;51.208;4.242;2023-05-24T03:05:03;9.90;99.90
19164;DHT22;9714;51.208;4.242;2023-05-24T03:07:30;9.80;99.90
19164;DHT22;9714;51.208;4.242;2023-05-24T03:09:59;9.60;99.90
19164;DHT22;9714;51.208;4.242;2023-05-24T03:12:26;9.50;99.90
19164;DHT22;9714;51.208;4.242;2023-05-24T03:14:53;9.30;99.90
19164;DHT22;9714;51.208;4.242;2023-05-24T03:17:20;9.20;99.90
19164;DHT22;9714;51.208;4.242;2023-05-24T03:19:47;9.30;99.90
19164;DHT22;9714;51.208;4.242;2023-05-24T03:22:14;9.30;99.90
19164;DHT22;9714;51.208;4.242;2023-05-24T03:24:41;9.20;99.90
19164;DHT22;9714;51.208;4.242;2023-05-24T03:27:10;9.30;99.90
19164;DHT22;9714;51.208;4.242;2023-05-24T03:29:37;9.30;99.90
19164;DHT22;9714;51.208;4.242;2023-05-24T03:32:05;9.20;99.90
19164;DHT22;9714;51.208;4.242;2023-05-24T03:34:32;9.20;99.90
19164;DHT22;9714;51.208;4.242;2023-05-24T03:36:59;9.20;99.90
19164;DHT22;9714;51.208;4.242;2023-05-24T03:39:26;9.10;99.90
19164;DHT22;9714;51.208;4.242;2023-05-24T03:41:53;9.20;99.90
19164;DHT22;9714;51.208;4.242;2023-05-24T03:44:22;9.20;99.90
19164;DHT22;9714;51.208;4.242;2023-05-24T03:46:49;9.10;99.90
19164;DHT22;9714;51.208;4.242;2023-05-24T03:49:16;9.00;99.90
19164;DHT22;9714;51.208;4.242;2023-05-24T03:51:43;9.20;99.90
19164;DHT22;9714;51.208;4.242;2023-05-24T03:54:12;9.30;99.90
19164;DHT22;9714;51.208;4.242;2023-05-24T03:56:39;9.20;99.90
19164;DHT22;9714;51.208;4.242;2023-05-24T03:59:06;9.20;99.90
19164;DHT22;9714;51.208;4.242;2023-05-24T04:01:34;9.30;99.90
19164;DHT22;9714;51.208;4.242;2023-05-24T04:04:02;9.40;99.90
19164;DHT22;9714;51.208;4.242;2023-05-24T04:06:29;9.50;99.90
19164;DHT22;9714;51.208;4.242;2023-05-24T04:08:57;9.50;99.90
19164;DHT22;9714;51.208;4.242;2023-05-24T04:11:25;9.60;99.90
19164;DHT22;9714;51.208;4.242;2023-05-24T04:13:53;9.70;99.90
19164;DHT22;9714;51.208;4.242;2023-05-24T04:16:21;9.60;99.90
19164;DHT22;9714;51.208;4.242;2023-05-24T04:18:52;9.60;99.90
19164;DHT22;9714;51.208;4.242;2023-05-24T04:21:20;9.50;99.90
19164;DHT22;9714;51.208;4.242;2023-05-24T04:23:47;9.30;99.90
19164;DHT22;9714;51.208;4.242;2023-05-24T04:26:14;9.50;99.90
19164;DHT22;9714;51.208;4.242;2023-05-24T04:28:42;9.50;99.90
19164;DHT22;9714;51.208;4.242;2023-05-24T04:31:10;9.50;99.90
19164;DHT22;9714;51.208;4.242;2023-05-24T04:33:38;9.50;99.90
19164;DHT22;9714;51.208;4.242;2023-05-24T04:36:07;9.50;99.90
19164;DHT22;9714;51.208;4.242;2023-05-24T04:38:36;9.50;99.90
19164;DHT22;9714;51.208;4.242;2023-05-24T04:41:04;9.90;99.90
19164;DHT22;9714;51.208;4.242;2023-05-24T04:43:32;10.20;99.90
19164;DHT22;9714;51.208;4.242;2023-05-24T04:45:59;10.20;99.90
19164;DHT22;9714;51.208;4.242;2023-05-24T04:48:27;10.20;99.90
19164;DHT22;9714;51.208;4.242;2023-05-24T04:50:55;10.20;99.90
19164;DHT22;9714;51.208;4.242;2023-05-24T04:53:24;10.20;99.90
19164;DHT22;9714;51.208;4.242;2023-05-24T04:55:51;10.10;99.90
19164;DHT22;9714;51.208;4.242;2023-05-24T04:58:19;10.20;99.90
19164;DHT22;9714;51.208;4.242;2023-05-24T05:00:46;10.30;99.90
19164;DHT22;9714;51.208;4.242;2023-05-24T05:03:14;10.40;99.90
19164;DHT22;9714;51.208;4.242;2023-05-24T05:05:41;10.60;99.90
19164;DHT22;9714;51.208;4.242;2023-05-24T05:08:09;10.80;99.90
19164;DHT22;9714;51.208;4.242;2023-05-24T05:10:37;10.80;99.90
19164;DHT22;9714;51.208;4.242;2023-05-24T05:13:05;11.00;99.90
19164;DHT22;9714;51.208;4.242;2023-05-24T05:15:32;11.10;99.90
19164;DHT22;9714;51.208;4.242;2023-05-24T05:18:00;11.20;99.90
19164;DHT22;9714;51.208;4.242;2023-05-24T05:20:28;11.20;99.90
19164;DHT22;9714;51.208;4.242;2023-05-24T05:22:55;11.20;99.90
19164;DHT22;9714;51.208;4.242;2023-05-24T05:25:23;11.30;99.90
19164;DHT22;9714;51.208;4.242;2023-05-24T05:27:52;11.40;99.90
19164;DHT22;9714;51.208;4.242;2023-05-24T05:30:19;11.80;99.90
19164;DHT22;9714;51.208;4.242;2023-05-24T05:32:46;11.80;99.90
19164;DHT22;9714;51.208;4.242;2023-05-24T05:35:13;12.00;99.90
19164;DHT22;9714;51.208;4.242;2023-05-24T05:37:41;11.90;99.90
19164;DHT22;9714;51.208;4.242;2023-05-24T05:40:10;12.00;99.90
19164;DHT22;9714;51.208;4.242;2023-05-24T05:42:38;12.10;99.90
19164;DHT22;9714;51.208;4.242;2023-05-24T05:45:10;12.40;99.90
19164;DHT22;9714;51.208;4.242;2023-05-24T05:47:39;12.50;99.90
19164;DHT22;9714;51.208;4.242;2023-05-24T05:50:08;12.70;99.90
19164;DHT22;9714;51.208;4.242;2023-05-24T05:52:36;12.80;99.90
19164;DHT22;9714;51.208;4.242;2023-05-24T05:55:04;13.20;99.90
19164;DHT22;9714;51.208;4.242;2023-05-24T05:57:32;13.40;99.90
19164;DHT22;9714;51.208;4.242;2023-05-24T05:59:59;13.60;99.90
19164;DHT22;9714;51.208;4.242;2023-05-24T06:02:28;13.60;99.90
19164;DHT22;9714;51.208;4.242;2023-05-24T06:04:55;13.30;99.90
19164;DHT22;9714;51.208;4.242;2023-05-24T06:07:22;13.20;99.90
19164;DHT22;9714;51.208;4.242;2023-05-24T06:09:49;13.40;99.90
19164;DHT22;9714;51.208;4.242;2023-05-24T06:12:16;13.50;99.90
19164;DHT22;9714;51.208;4.242;2023-05-24T06:14:44;13.70;99.90
19164;DHT22;9714;51.208;4.242;2023-05-24T06:17:12;13.80;99.90
19164;DHT22;9714;51.208;4.242;2023-05-24T06:19:41;13.80;99.90
19164;DHT22;9714;51.208;4.242;2023-05-24T06:22:08;13.90;99.90
19164;DHT22;9714;51.208;4.242;2023-05-24T06:24:35;14.10;99.90
19164;DHT22;9714;51.208;4.242;2023-05-24T06:27:04;14.20;99.90
19164;DHT22;9714;51.208;4.242;2023-05-24T06:29:31;14.40;99.90
19164;DHT22;9714;51.208;4.242;2023-05-24T06:31:58;14.40;99.90
19164;DHT22;9714;51.208;4.242;2023-05-24T06:34:25;14.40;99.90
19164;DHT22;9714;51.208;4.242;2023-05-24T06:36:55;14.40;99.90
19164;DHT22;9714;51.208;4.242;2023-05-24T06:39:22;14.50;99.90
19164;DHT22;9714;51.208;4.242;2023-05-24T06:41:50;14.50;99.90
19164;DHT22;9714;51.208;4.242;2023-05-24T06:44:18;14.80;99.90
19164;DHT22;9714;51.208;4.242;2023-05-24T06:46:47;15.10;99.90
19164;DHT22;9714;51.208;4.242;2023-05-24T06:49:15;15.40;99.90
19164;DHT22;9714;51.208;4.242;2023-05-24T06:51:42;15.50;99.90
19164;DHT22;9714;51.208;4.242;2023-05-24T06:54:12;15.70;99.90
19164;DHT22;9714;51.208;4.242;2023-05-24T06:56:39;15.40;99.90
19164;DHT22;9714;51.208;4.242;2023-05-24T06:59:07;15.60;99.90
19164;DHT22;9714;51.208;4.242;2023-05-24T07:01:35;15.60;99.90
19164;DHT22;9714;51.208;4.242;2023-05-24T07:04:04;15.70;99.90
19164;DHT22;9714;51.208;4.242;2023-05-24T07:06:31;15.50;99.90
19164;DHT22;9714;51.208;4.242;2023-05-24T07:08:58;15.60;99.90
19164;DHT22;9714;51.208;4.242;2023-05-24T07:11:27;15.60;99.90
19164;DHT22;9714;51.208;4.242;2023-05-24T07:13:55;15.90;99.90
19164;DHT22;9714;51.208;4.242;2023-05-24T07:16:22;16.00;99.90
19164;DHT22;9714;51.208;4.242;2023-05-24T07:18:49;15.90;99.90
19164;DHT22;9714;51.208;4.242;2023-05-24T07:21:16;16.00;99.90
19164;DHT22;9714;51.208;4.242;2023-05-24T07:23:43;16.00;99.90
19164;DHT22;9714;51.208;4.242;2023-05-24T07:26:11;16.30;99.90
19164;DHT22;9714;51.208;4.242;2023-05-24T07:28:40;16.60;99.90
19164;DHT22;9714;51.208;4.242;2023-05-24T07:31:08;16.80;99.90
19164;DHT22;9714;51.208;4.242;2023-05-24T07:33:36;17.10;99.90
19164;DHT22;9714;51.208;4.242;2023-05-24T07:36:04;17.30;99.90
19164;DHT22;9714;51.208;4.242;2023-05-24T07:38:32;17.20;99.90
19164;DHT22;9714;51.208;4.242;2023-05-24T07:41:02;17.40;99.90
19164;DHT22;9714;51.208;4.242;2023-05-24T07:43:29;17.50;99.90
19164;DHT22;9714;51.208;4.242;2023-05-24T07:45:58;17.30;99.90
19164;DHT22;9714;51.208;4.242;2023-05-24T07:48:25;17.40;99.90
19164;DHT22;9714;51.208;4.242;2023-05-24T07:50:53;17.80;99.90
19164;DHT22;9714;51.208;4.242;2023-05-24T07:53:20;17.80;99.90
19164;DHT22;9714;51.208;4.242;2023-05-24T07:55:48;17.60;99.90
19164;DHT22;9714;51.208;4.242;2023-05-24T07:58:15;18.00;99.90
19164;DHT22;9714;51.208;4.242;2023-05-24T08:00:42;17.70;99.90
19164;DHT22;9714;51.208;4.242;2023-05-24T08:03:11;18.00;99.90
19164;DHT22;9714;51.208;4.242;2023-05-24T08:05:40;18.10;99.90
19164;DHT22;9714;51.208;4.242;2023-05-24T08:08:07;18.10;99.90
19164;DHT22;9714;51.208;4.242;2023-05-24T08:10:35;17.70;99.90
19164;DHT22;9714;51.208;4.242;2023-05-24T08:13:02;17.80;99.90
19164;DHT22;9714;51.208;4.242;2023-05-24T08:15:30;18.10;99.90
19164;DHT22;9714;51.208;4.242;2023-05-24T08:17:57;18.40;99.90
19164;DHT22;9714;51.208;4.242;2023-05-24T08:20:26;18.70;99.90
19164;DHT22;9714;51.208;4.242;2023-05-24T08:22:53;19.00;99.90
19164;DHT22;9714;51.208;4.242;2023-05-24T08:25:21;19.20;99.90
19164;DHT22;9714;51.208;4.242;2023-05-24T08:27:48;19.70;99.90
19164;DHT22;9714;51.208;4.242;2023-05-24T08:30:16;20.40;99.90
19164;DHT22;9714;51.208;4.242;2023-05-24T08:32:44;20.10;99.90
19164;DHT22;9714;51.208;4.242;2023-05-24T08:35:11;20.80;99.90
19164;DHT22;9714;51.208;4.242;2023-05-24T08:37:40;21.30;99.90
19164;DHT22;9714;51.208;4.242;2023-05-24T08:40:08;22.30;98.90
19164;DHT22;9714;51.208;4.242;2023-05-24T08:42:37;22.90;94.80
19164;DHT22;9714;51.208;4.242;2023-05-24T08:45:08;23.30;92.70
19164;DHT22;9714;51.208;4.242;2023-05-24T08:47:37;23.30;92.40
19164;DHT22;9714;51.208;4.242;2023-05-24T08:50:06;22.80;92.20
19164;DHT22;9714;51.208;4.242;2023-05-24T08:52:33;22.90;91.50
19164;DHT22;9714;51.208;4.242;2023-05-24T08:55:03;22.30;92.10
19164;DHT22;9714;51.208;4.242;2023-05-24T08:57:31;21.70;93.80
19164;DHT22;9714;51.208;4.242;2023-05-24T08:59:59;21.90;92.50
19164;DHT22;9714;51.208;4.242;2023-05-24T09:02:26;21.50;91.50
19164;DHT22;9714;51.208;4.242;2023-05-24T09:04:54;21.30;91.80
19164;DHT22;9714;51.208;4.242;2023-05-24T09:07:22;21.10;92.60
19164;DHT22;9714;51.208;4.242;2023-05-24T09:09:55;22.20;87.00
19164;DHT22;9714;51.208;4.242;2023-05-24T09:12:26;22.90;90.10
19164;DHT22;9714;51.208;4.242;2023-05-24T09:14:56;23.40;87.60
19164;DHT22;9714;51.208;4.242;2023-05-24T09:17:23;23.60;84.40
19164;DHT22;9714;51.208;4.242;2023-05-24T09:19:51;24.20;81.80
19164;DHT22;9714;51.208;4.242;2023-05-24T09:22:19;24.70;76.60
19164;DHT22;9714;51.208;4.242;2023-05-24T09:24:51;24.50;74.40
19164;DHT22;9714;51.208;4.242;2023-05-24T09:27:18;24.90;70.30
19164;DHT22;9714;51.208;4.242;2023-05-24T09:29:49;25.00;70.20
19164;DHT22;9714;51.208;4.242;2023-05-24T09:32:17;24.60;70.30
19164;DHT22;9714;51.208;4.242;2023-05-24T09:34:45;24.70;69.00
19164;DHT22;9714;51.208;4.242;2023-05-24T09:37:14;24.40;69.70
19164;DHT22;9714;51.208;4.242;2023-05-24T09:39:42;24.60;68.60
19164;DHT22;9714;51.208;4.242;2023-05-24T09:42:14;24.80;68.80
19164;DHT22;9714;51.208;4.242;2023-05-24T09:44:42;24.80;68.30
19164;DHT22;9714;51.208;4.242;2023-05-24T09:47:10;25.50;68.00
19164;DHT22;9714;51.208;4.242;2023-05-24T09:49:38;24.50;69.00
19164;DHT22;9714;51.208;4.242;2023-05-24T09:52:05;25.20;67.60
19164;DHT22;9714;51.208;4.242;2023-05-24T09:54:32;25.60;67.30
19164;DHT22;9714;51.208;4.242;2023-05-24T09:56:59;25.00;67.40
19164;DHT22;9714;51.208;4.242;2023-05-24T09:59:31;25.00;68.10
19164;DHT22;9714;51.208;4.242;2023-05-24T10:02:07;24.80;69.10
19164;DHT22;9714;51.208;4.242;2023-05-24T10:04:37;24.30;69.60
19164;DHT22;9714;51.208;4.242;2023-05-24T10:07:05;23.90;71.00
19164;DHT22;9714;51.208;4.242;2023-05-24T10:09:33;24.50;70.50
19164;DHT22;9714;51.208;4.242;2023-05-24T10:12:02;24.90;69.70
19164;DHT22;9714;51.208;4.242;2023-05-24T10:14:32;24.60;69.50
19164;DHT22;9714;51.208;4.242;2023-05-24T10:17:01;24.50;70.20
19164;DHT22;9714;51.208;4.242;2023-05-24T10:19:28;25.30;69.20
19164;DHT22;9714;51.208;4.242;2023-05-24T10:21:57;27.00;64.80
19164;DHT22;9714;51.208;4.242;2023-05-24T10:24:31;27.20;62.80
19164;DHT22;9714;51.208;4.242;2023-05-24T10:27:01;27.20;61.00
19164;DHT22;9714;51.208;4.242;2023-05-24T10:29:40;27.20;59.70
19164;DHT22;9714;51.208;4.242;2023-05-24T10:32:13;26.80;59.40
19164;DHT22;9714;51.208;4.242;2023-05-24T10:34:42;25.90;58.90
19164;DHT22;9714;51.208;4.242;2023-05-24T10:37:11;25.60;60.40
19164;DHT22;9714;51.208;4.242;2023-05-24T10:43:03;27.40;56.70
19164;DHT22;9714;51.208;4.242;2023-05-24T10:45:33;28.70;55.20
19164;DHT22;9714;51.208;4.242;2023-05-24T10:48:36;28.20;56.30
19164;DHT22;9714;51.208;4.242;2023-05-24T10:51:34;27.10;56.30
19164;DHT22;9714;51.208;4.242;2023-05-24T10:54:19;26.60;55.20
19164;DHT22;9714;51.208;4.242;2023-05-24T10:56:51;27.20;54.80
19164;DHT22;9714;51.208;4.242;2023-05-24T10:59:29;26.80;55.00
19164;DHT22;9714;51.208;4.242;2023-05-24T11:02:00;25.60;56.20
19164;DHT22;9714;51.208;4.242;2023-05-24T11:04:32;26.70;55.10
19164;DHT22;9714;51.208;4.242;2023-05-24T11:07:03;27.40;54.60
19164;DHT22;9714;51.208;4.242;2023-05-24T11:09:32;27.70;51.00
19164;DHT22;9714;51.208;4.242;2023-05-24T11:12:01;28.30;51.40
19164;DHT22;9714;51.208;4.242;2023-05-24T11:14:35;29.00;52.60
19164;DHT22;9714;51.208;4.242;2023-05-24T11:17:04;29.90;49.70
19164;DHT22;9714;51.208;4.242;2023-05-24T11:19:33;30.10;48.80
19164;DHT22;9714;51.208;4.242;2023-05-24T11:22:01;30.60;47.30
19164;DHT22;9714;51.208;4.242;2023-05-24T11:24:29;30.10;47.20
19164;DHT22;9714;51.208;4.242;2023-05-24T11:26:59;29.30;47.60
19164;DHT22;9714;51.208;4.242;2023-05-24T11:29:27;28.80;49.10
19164;DHT22;9714;51.208;4.242;2023-05-24T11:31:55;28.70;48.90
19164;DHT22;9714;51.208;4.242;2023-05-24T11:34:26;28.70;47.60
19164;DHT22;9714;51.208;4.242;2023-05-24T11:36:54;28.40;48.60
19164;DHT22;9714;51.208;4.242;2023-05-24T11:39:21;29.60;48.20
19164;DHT22;9714;51.208;4.242;2023-05-24T11:41:52;28.80;47.80
19164;DHT22;9714;51.208;4.242;2023-05-24T11:44:21;29.00;48.40
19164;DHT22;9714;51.208;4.242;2023-05-24T11:46:48;29.50;47.40
19164;DHT22;9714;51.208;4.242;2023-05-24T11:49:16;30.10;47.40
19164;DHT22;9714;51.208;4.242;2023-05-24T11:51:43;29.10;47.20
19164;DHT22;9714;51.208;4.242;2023-05-24T11:54:10;30.40;46.70
19164;DHT22;9714;51.208;4.242;2023-05-24T11:56:37;29.80;47.20
19164;DHT22;9714;51.208;4.242;2023-05-24T11:59:10;30.50;47.40
19164;DHT22;9714;51.208;4.242;2023-05-24T12:01:41;30.30;47.20
19164;DHT22;9714;51.208;4.242;2023-05-24T12:04:09;30.80;46.90
19164;DHT22;9714;51.208;4.242;2023-05-24T12:06:39;31.40;45.70
19164;DHT22;9714;51.208;4.242;2023-05-24T12:09:09;32.10;45.70
19164;DHT22;9714;51.208;4.242;2023-05-24T12:11:39;31.10;45.80
19164;DHT22;9714;51.208;4.242;2023-05-24T12:14:10;31.30;45.40
19164;DHT22;9714;51.208;4.242;2023-05-24T12:16:40;31.30;45.20
19164;DHT22;9714;51.208;4.242;2023-05-24T12:19:07;30.30;45.80
19164;DHT22;9714;51.208;4.242;2023-05-24T12:21:40;29.60;46.70
19164;DHT22;9714;51.208;4.242;2023-05-24T12:24:10;29.70;47.40
19164;DHT22;9714;51.208;4.242;2023-05-24T12:26:41;30.00;47.10
19164;DHT22;9714;51.208;4.242;2023-05-24T12:29:11;30.70;46.40
19164;DHT22;9714;51.208;4.242;2023-05-24T12:31:46;31.70;45.80
19164;DHT22;9714;51.208;4.242;2023-05-24T12:34:16;31.60;45.50
19164;DHT22;9714;51.208;4.242;2023-05-24T12:36:44;30.70;46.20
19164;DHT22;9714;51.208;4.242;2023-05-24T12:39:20;30.80;46.80
19164;DHT22;9714;51.208;4.242;2023-05-24T12:41:51;31.70;46.30
19164;DHT22;9714;51.208;4.242;2023-05-24T12:44:23;31.20;45.70
19164;DHT22;9714;51.208;4.242;2023-05-24T12:46:53;31.10;45.60
19164;DHT22;9714;51.208;4.242;2023-05-24T12:49:20;30.90;45.60
19164;DHT22;9714;51.208;4.242;2023-05-24T12:51:48;30.70;45.10
19164;DHT22;9714;51.208;4.242;2023-05-24T12:54:17;30.70;46.50
19164;DHT22;9714;51.208;4.242;2023-05-24T12:56:46;30.90;46.30
19164;DHT22;9714;51.208;4.242;2023-05-24T12:59:13;30.10;46.30
19164;DHT22;9714;51.208;4.242;2023-05-24T13:01:41;29.80;46.50
19164;DHT22;9714;51.208;4.242;2023-05-24T13:04:12;30.50;46.50
19164;DHT22;9714;51.208;4.242;2023-05-24T13:06:41;31.40;45.30
19164;DHT22;9714;51.208;4.242;2023-05-24T13:09:08;30.40;45.30
19164;DHT22;9714;51.208;4.242;2023-05-24T13:11:36;30.00;46.20
19164;DHT22;9714;51.208;4.242;2023-05-24T13:14:04;29.60;46.70
19164;DHT22;9714;51.208;4.242;2023-05-24T13:16:31;29.80;46.90
19164;DHT22;9714;51.208;4.242;2023-05-24T13:19:00;30.50;46.20
19164;DHT22;9714;51.208;4.242;2023-05-24T13:21:29;30.20;45.40
19164;DHT22;9714;51.208;4.242;2023-05-24T13:23:56;30.10;45.70
19164;DHT22;9714;51.208;4.242;2023-05-24T13:26:24;28.90;46.40
19164;DHT22;9714;51.208;4.242;2023-05-24T13:28:51;28.50;47.30
19164;DHT22;9714;51.208;4.242;2023-05-24T13:31:18;28.20;47.90
19164;DHT22;9714;51.208;4.242;2023-05-24T13:33:45;26.80;49.30
19164;DHT22;9714;51.208;4.242;2023-05-24T13:36:13;26.30;50.30
19164;DHT22;9714;51.208;4.242;2023-05-24T13:38:43;25.60;51.50
19164;DHT22;9714;51.208;4.242;2023-05-24T13:41:10;25.20;51.70
19164;DHT22;9714;51.208;4.242;2023-05-24T13:43:38;24.60;52.20
19164;DHT22;9714;51.208;4.242;2023-05-24T13:46:05;24.70;52.50
19164;DHT22;9714;51.208;4.242;2023-05-24T13:48:33;24.30;53.10
19164;DHT22;9714;51.208;4.242;2023-05-24T13:51:00;24.70;53.70
19164;DHT22;9714;51.208;4.242;2023-05-24T13:53:27;24.80;53.10
19164;DHT22;9714;51.208;4.242;2023-05-24T13:55:57;24.60;52.40
19164;DHT22;9714;51.208;4.242;2023-05-24T13:58:25;24.20;54.30
19164;DHT22;9714;51.208;4.242;2023-05-24T14:00:53;23.90;54.20
19164;DHT22;9714;51.208;4.242;2023-05-24T14:03:20;23.30;54.80
19164;DHT22;9714;51.208;4.242;2023-05-24T14:05:49;23.60;54.90
19164;DHT22;9714;51.208;4.242;2023-05-24T14:08:16;23.40;55.60
19164;DHT22;9714;51.208;4.242;2023-05-24T14:10:43;23.20;55.50
19164;DHT22;9714;51.208;4.242;2023-05-24T14:13:15;22.90;56.50
19164;DHT22;9714;51.208;4.242;2023-05-24T14:15:42;22.90;56.30
19164;DHT22;9714;51.208;4.242;2023-05-24T14:18:11;22.60;56.90
19164;DHT22;9714;51.208;4.242;2023-05-24T14:20:41;22.30;57.10
19164;DHT22;9714;51.208;4.242;2023-05-24T14:23:09;22.10;57.50
19164;DHT22;9714;51.208;4.242;2023-05-24T14:25:36;22.40;58.40
19164;DHT22;9714;51.208;4.242;2023-05-24T14:28:03;22.60;57.10
19164;DHT22;9714;51.208;4.242;2023-05-24T14:30:34;22.40;57.70
19164;DHT22;9714;51.208;4.242;2023-05-24T14:33:03;22.50;57.50
19164;DHT22;9714;51.208;4.242;2023-05-24T14:35:33;22.30;57.60
19164;DHT22;9714;51.208;4.242;2023-05-24T14:38:04;22.30;57.50
19164;DHT22;9714;51.208;4.242;2023-05-24T14:40:32;22.30;58.60
19164;DHT22;9714;51.208;4.242;2023-05-24T14:43:01;22.00;58.60
19164;DHT22;9714;51.208;4.242;2023-05-24T14:45:28;21.60;59.50
19164;DHT22;9714;51.208;4.242;2023-05-24T14:47:57;21.90;58.90
19164;DHT22;9714;51.208;4.242;2023-05-24T14:50:25;21.70;59.60
19164;DHT22;9714;51.208;4.242;2023-05-24T14:52:52;22.10;59.10
19164;DHT22;9714;51.208;4.242;2023-05-24T14:55:19;22.00;58.50
19164;DHT22;9714;51.208;4.242;2023-05-24T14:57:47;22.00;59.10
19164;DHT22;9714;51.208;4.242;2023-05-24T15:00:16;21.50;60.40
19164;DHT22;9714;51.208;4.242;2023-05-24T15:02:43;21.80;60.50
19164;DHT22;9714;51.208;4.242;2023-05-24T15:05:11;22.10;59.50
19164;DHT22;9714;51.208;4.242;2023-05-24T15:07:38;22.00;60.20
19164;DHT22;9714;51.208;4.242;2023-05-24T15:10:06;22.00;59.90
19164;DHT22;9714;51.208;4.242;2023-05-24T15:12:33;22.50;59.60
19164;DHT22;9714;51.208;4.242;2023-05-24T15:15:00;22.40;59.40
19164;DHT22;9714;51.208;4.242;2023-05-24T15:17:27;22.70;59.60
19164;DHT22;9714;51.208;4.242;2023-05-24T15:19:54;22.80;59.80
19164;DHT22;9714;51.208;4.242;2023-05-24T15:22:26;22.90;60.10
19164;DHT22;9714;51.208;4.242;2023-05-24T15:24:53;22.80;59.20
19164;DHT22;9714;51.208;4.242;2023-05-24T15:27:20;22.80;59.10
19164;DHT22;9714;51.208;4.242;2023-05-24T15:29:48;23.20;59.10
19164;DHT22;9714;51.208;4.242;2023-05-24T15:32:16;23.40;58.40
19164;DHT22;9714;51.208;4.242;2023-05-24T15:34:43;23.60;58.10
19164;DHT22;9714;51.208;4.242;2023-05-24T15:37:11;24.50;58.10
19164;DHT22;9714;51.208;4.242;2023-05-24T15:39:40;25.50;56.00
19164;DHT22;9714;51.208;4.242;2023-05-24T15:42:07;25.30;55.60
19164;DHT22;9714;51.208;4.242;2023-05-24T15:44:34;25.20;55.90
19164;DHT22;9714;51.208;4.242;2023-05-24T15:47:02;24.20;56.80
19164;DHT22;9714;51.208;4.242;2023-05-24T15:49:29;23.90;57.50
19164;DHT22;9714;51.208;4.242;2023-05-24T15:51:56;23.10;58.90
19164;DHT22;9714;51.208;4.242;2023-05-24T15:54:23;22.90;60.40
19164;DHT22;9714;51.208;4.242;2023-05-24T15:56:52;22.80;60.30
19164;DHT22;9714;51.208;4.242;2023-05-24T15:59:19;22.40;61.20
19164;DHT22;9714;51.208;4.242;2023-05-24T16:01:47;22.20;61.90